MTN7814 KORF-KMQI

Flight info

Callsign MTN7814
Flight time 0h 19m
Altitude 12000
Route ECG/N0365F110
Aircraft B77W/H-SDE1E2E3FGHIJ2J3J4J5M1RWXY/LB1D1

Departure

Time 2026-05-04 21:11
Airport Norfolk International Airport (KORF)

Arrival

Time 2026-05-04 21:31
Airport Dare County Regional Airport (KMQI)
Time Latitude Longitude Altitude Speed Heading
2026-05-04 20:56 36.89109 -76.20651 28 ft 0 kts 217°
2026-05-04 21:03 36.89104 -76.20651 28 ft 2 kts 127°
2026-05-04 21:03 36.89128 -76.20615 27 ft 10 kts 46°
2026-05-04 21:04 36.89126 -76.20515 27 ft 14 kts 59°
2026-05-04 21:04 36.89225 -76.20433 28 ft 19 kts 33°
2026-05-04 21:04 36.89324 -76.20339 30 ft 19 kts 37°
2026-05-04 21:04 36.89445 -76.20226 31 ft 23 kts 37°
2026-05-04 21:05 36.89581 -76.20093 30 ft 28 kts 38°
2026-05-04 21:05 36.89741 -76.19934 28 ft 29 kts 38°
2026-05-04 21:05 36.89884 -76.19794 26 ft 23 kts 38°
2026-05-04 21:05 36.89998 -76.19686 25 ft 19 kts 37°
2026-05-04 21:06 36.90054 -76.19577 26 ft 13 kts 118°
2026-05-04 21:06 36.90045 -76.19562 27 ft 0 kts 126°
2026-05-04 21:09 36.90016 -76.19513 27 ft 14 kts 131°
2026-05-04 21:09 36.89968 -76.19498 25 ft 0 kts 215°
2026-05-04 21:09 36.89897 -76.19562 26 ft 30 kts 217°
2026-05-04 21:10 36.89644 -76.19805 29 ft 60 kts 218°
2026-05-04 21:10 36.89249 -76.20179 32 ft 82 kts 216°
2026-05-04 21:10 36.88777 -76.20641 108 ft 88 kts 217°
2026-05-04 21:10 36.88304 -76.21063 291 ft 82 kts 208°
2026-05-04 21:11 36.87799 -76.21442 402 ft 88 kts 205°
2026-05-04 21:11 36.87220 -76.21748 503 ft 95 kts 203°
2026-05-04 21:11 36.86737 -76.22224 724 ft 87 kts 243°
2026-05-04 21:11 36.86951 -76.22980 593 ft 122 kts 329°
2026-05-04 21:12 36.87770 -76.23196 745 ft 124 kts
2026-05-04 21:12 36.88577 -76.22602 705 ft 147 kts 42°
2026-05-04 21:12 36.89286 -76.21677 819 ft 149 kts 62°
2026-05-04 21:12 36.89607 -76.20452 927 ft 150 kts 94°
2026-05-04 21:13 36.89244 -76.19306 1038 ft 140 kts 143°
2026-05-04 21:13 36.88407 -76.18980 1205 ft 123 kts 195°
2026-05-04 21:13 36.87584 -76.19128 1412 ft 119 kts 184°
2026-05-04 21:13 36.86762 -76.19124 1604 ft 117 kts 185°
2026-05-04 21:14 36.85957 -76.19139 1786 ft 114 kts 185°
2026-05-04 21:14 36.85172 -76.19130 1994 ft 113 kts 185°
2026-05-04 21:14 36.84376 -76.19120 2197 ft 116 kts 185°
2026-05-04 21:14 36.83573 -76.19105 2387 ft 118 kts 183°
2026-05-04 21:15 36.82732 -76.19078 2590 ft 121 kts 184°
2026-05-04 21:15 36.81923 -76.19055 2823 ft 113 kts 185°
2026-05-04 21:15 36.81171 -76.19028 3061 ft 105 kts 185°
2026-05-04 21:15 36.80463 -76.19009 3280 ft 100 kts 185°
2026-05-04 21:16 36.79779 -76.18988 3498 ft 96 kts 185°
2026-05-04 21:16 36.79142 -76.18968 3706 ft 86 kts 185°
2026-05-04 21:16 36.78549 -76.18949 3814 ft 90 kts 187°
2026-05-04 21:16 36.77947 -76.18933 3960 ft 89 kts 185°
2026-05-04 21:17 36.77318 -76.18911 4095 ft 89 kts 188°
2026-05-04 21:17 36.76677 -76.18899 4223 ft 93 kts 186°
2026-05-04 21:17 36.76044 -76.18885 4393 ft 91 kts 186°
2026-05-04 21:17 36.75405 -76.18869 4491 ft 92 kts 186°
2026-05-04 21:18 36.74762 -76.18854 4659 ft 92 kts 186°
2026-05-04 21:18 36.74118 -76.18839 4772 ft 92 kts 186°
2026-05-04 21:18 36.73483 -76.18818 4903 ft 91 kts 185°
2026-05-04 21:18 36.71878 -76.18777 5224 ft 94 kts 186°
2026-05-04 21:19 36.66520 -76.18635 6208 ft 98 kts 188°
2026-05-04 21:19 36.61154 -76.18486 6962 ft 105 kts 188°
2026-05-04 21:19 36.55133 -76.18330 7844 ft 110 kts 189°
2026-05-04 21:19 36.47761 -76.18146 8052 ft 163 kts 186°
2026-05-04 21:20 36.38311 -76.17886 8019 ft 171 kts 186°
2026-05-04 21:20 36.33418 -76.17755 8031 ft 171 kts 186°
2026-05-04 21:20 36.32227 -76.17721 8027 ft 171 kts 185°
2026-05-04 21:20 36.31038 -76.17690 8027 ft 172 kts 185°
2026-05-04 21:21 36.29843 -76.17657 8029 ft 172 kts 185°
2026-05-04 21:21 36.25782 -76.17431 8027 ft 177 kts 166°
2026-05-04 21:21 36.24625 -76.16404 8032 ft 184 kts 144°
2026-05-04 21:21 36.23645 -76.15394 8033 ft 184 kts 146°
2026-05-04 21:22 36.21768 -76.13494 8028 ft 185 kts 146°
2026-05-04 21:22 36.17739 -76.09407 8024 ft 187 kts 146°
2026-05-04 21:22 36.13749 -76.05364 8020 ft 185 kts 146°
2026-05-04 21:22 36.09740 -76.01313 7882 ft 190 kts 146°
2026-05-04 21:23 36.07103 -75.98644 7607 ft 188 kts 146°
2026-05-04 21:23 36.05038 -75.96562 7200 ft 196 kts 146°
2026-05-04 21:23 36.02985 -75.94488 6659 ft 187 kts 147°
2026-05-04 21:23 36.00991 -75.92478 6094 ft 184 kts 147°
2026-05-04 21:24 35.98901 -75.90374 5323 ft 184 kts 147°
2026-05-04 21:24 35.97914 -75.89381 4954 ft 182 kts 147°
2026-05-04 21:24 35.96944 -75.88404 4525 ft 176 kts 148°
2026-05-04 21:24 35.96016 -75.87470 4088 ft 170 kts 149°
2026-05-04 21:25 35.95113 -75.86564 3658 ft 164 kts 148°
2026-05-04 21:25 35.94258 -75.85701 3282 ft 155 kts 149°
2026-05-04 21:25 35.93436 -75.84876 2890 ft 149 kts 149°
2026-05-04 21:25 35.92657 -75.84092 2513 ft 143 kts 149°
2026-05-04 21:26 35.91891 -75.83323 2140 ft 143 kts 148°
2026-05-04 21:26 35.91113 -75.82544 1772 ft 145 kts 147°
2026-05-04 21:26 35.90367 -75.81788 1687 ft 127 kts 148°
2026-05-04 21:26 35.89742 -75.81151 1671 ft 108 kts 149°
2026-05-04 21:27 35.89193 -75.80601 1660 ft 96 kts 149°
2026-05-04 21:27 35.88698 -75.80103 1655 ft 87 kts 152°
2026-05-04 21:27 35.88209 -75.79612 1666 ft 96 kts 150°
2026-05-04 21:27 35.87671 -75.79075 1680 ft 102 kts 149°
2026-05-04 21:28 35.87101 -75.78506 1690 ft 108 kts 150°
2026-05-04 21:28 35.86500 -75.77907 1682 ft 113 kts 148°
2026-05-04 21:28 35.85893 -75.77277 1677 ft 118 kts 142°
2026-05-04 21:28 35.85607 -75.76283 1693 ft 137 kts 96°
2026-05-04 21:29 35.86041 -75.75168 1681 ft 156 kts 46°
2026-05-04 21:29 35.86919 -75.74364 1683 ft 158 kts 38°
2026-05-04 21:29 35.87805 -75.73544 1626 ft 163 kts 39°
2026-05-04 21:29 35.88677 -75.72745 1365 ft 147 kts 42°
2026-05-04 21:30 35.89448 -75.71982 1022 ft 141 kts 44°
2026-05-04 21:30 35.90170 -75.71247 695 ft 126 kts 46°
2026-05-04 21:30 35.90845 -75.70594 359 ft 121 kts 38°
2026-05-04 21:30 35.91497 -75.69981 31 ft 110 kts 39°
2026-05-04 21:31 35.92253 -75.69238 22 ft 16 kts 39°
2026-05-04 21:31 35.92293 -75.69282 19 ft 5 kts 300°
2026-05-04 21:31 35.92307 -75.69313 19 ft 3 kts 276°
2026-05-04 21:32 35.92307 -75.69323 20 ft 1 kts 247°
2026-05-04 21:32 35.92266 -75.69367 19 ft 13 kts 218°